Time;durP1;ratioP1;P1;durP2;ratioP2;P2;SDS_P1;SDS_P2;PMS_P1;PMS_P2;Temp;Humidity;BMP_temperature;BMP_pressure;BME280_temperature;BME280_humidity;BME280_pressure;Samples;Min_cycle;Max_cycle;Signal;HPM_P1;HPM_P2
2022/10/04 00:02:03;;;;;;;17.83;5.75;;;15.40;89.90;;;;;;5079535;28;20036;-75
2022/10/04 00:04:39;;;;;;;14.00;6.00;;;15.30;89.90;;;;;;5076035;28;20039;-75
2022/10/04 00:07:10;;;;;;;15.95;6.00;;;15.40;89.80;;;;;;5058803;28;20384;-75
2022/10/04 00:09:48;;;;;;;13.00;5.75;;;15.40;89.80;;;;;;5073986;28;20021;-75
2022/10/04 00:12:22;;;;;;;12.68;6.32;;;15.30;89.80;;;;;;5077134;28;20028;-75
2022/10/04 00:14:50;;;;;;;17.35;6.45;;;15.30;89.80;;;;;;5087055;28;20105;-75
2022/10/04 00:17:24;;;;;;;14.40;7.28;;;15.30;89.80;;;;;;5089971;28;20031;-75
2022/10/04 00:19:51;;;;;;;16.15;7.68;;;15.30;89.80;;;;;;5087514;28;20066;-74
2022/10/04 00:22:28;;;;;;;16.55;7.47;;;15.30;89.70;;;;;;5080177;28;20052;-74
2022/10/04 00:25:06;;;;;;;16.55;6.60;;;15.30;89.80;;;;;;5069915;28;20100;-74
2022/10/04 00:27:33;;;;;;;13.80;6.43;;;15.30;89.90;;;;;;5062780;28;20047;-74
2022/10/04 00:30:02;;;;;;;15.18;6.65;;;15.30;89.80;;;;;;5086274;28;20117;-74
2022/10/04 00:32:40;;;;;;;14.00;6.88;;;15.30;89.80;;;;;;5078531;28;20039;-75
2022/10/04 00:35:23;;;;;;;16.70;6.75;;;15.30;89.90;;;;;;5084828;28;20482;-75
2022/10/04 00:37:56;;;;;;;12.75;6.80;;;15.30;90.00;;;;;;5080591;28;20036;-75
2022/10/04 00:40:31;;;;;;;13.38;6.75;;;15.30;89.90;;;;;;5069526;28;20356;-75
2022/10/04 00:43:00;;;;;;;13.75;6.82;;;15.30;89.80;;;;;;5079096;28;20066;-74
2022/10/04 00:45:27;;;;;;;13.88;6.72;;;15.30;89.80;;;;;;5069633;28;20047;-75
2022/10/04 00:48:21;;;;;;;13.05;6.57;;;15.30;89.80;;;;;;5060187;28;20026;-75
2022/10/04 00:51:05;;;;;;;12.02;6.45;;;15.20;89.90;;;;;;5068769;28;20119;-75
2022/10/04 00:54:02;;;;;;;9.88;6.03;;;15.20;90.00;;;;;;5054654;28;20115;-75
2022/10/04 00:56:42;;;;;;;17.02;7.15;;;15.20;90.00;;;;;;5075258;28;20520;-75
2022/10/04 00:59:32;;;;;;;12.55;7.30;;;15.20;89.90;;;;;;5055311;28;20078;-75
2022/10/04 01:02:13;;;;;;;18.13;7.15;;;15.20;90.00;;;;;;5065025;28;20039;-75
2022/10/04 01:04:41;;;;;;;16.90;7.03;;;15.20;90.00;;;;;;5078677;28;20028;-75
2022/10/04 01:07:10;;;;;;;18.48;7.40;;;15.20;90.00;;;;;;5088786;28;20109;-75
2022/10/04 01:09:42;;;;;;;17.77;7.50;;;15.20;90.10;;;;;;5055051;28;20021;-75
2022/10/04 01:12:23;;;;;;;15.32;7.30;;;15.20;90.10;;;;;;5076567;28;20020;-75
2022/10/04 01:15:01;;;;;;;12.52;6.40;;;15.10;90.20;;;;;;5086005;28;20035;-75
2022/10/04 01:17:27;;;;;;;17.50;8.15;;;15.10;90.20;;;;;;5083972;28;20028;-75
2022/10/04 01:19:53;;;;;;;16.15;7.93;;;15.10;90.20;;;;;;5056422;28;20017;-75
2022/10/04 01:22:41;;;;;;;13.82;7.40;;;15.10;90.30;;;;;;5068332;28;20093;-75
2022/10/04 01:25:07;;;;;;;13.82;7.07;;;15.10;90.30;;;;;;5083036;28;20112;-76
2022/10/04 01:27:43;;;;;;;12.00;7.15;;;15.10;90.20;;;;;;5066810;28;20016;-76
2022/10/04 01:30:13;;;;;;;16.45;6.95;;;15.10;90.30;;;;;;5055386;28;20033;-75
2022/10/04 01:32:39;;;;;;;15.05;7.82;;;15.20;90.30;;;;;;5070483;28;20063;-76
2022/10/04 01:35:11;;;;;;;15.15;7.05;;;15.10;90.30;;;;;;5074206;28;20056;-76
2022/10/04 01:37:38;;;;;;;12.90;7.95;;;15.10;90.30;;;;;;5076502;28;20024;-75
2022/10/04 01:40:07;;;;;;;16.40;8.00;;;15.10;90.40;;;;;;5061952;28;20022;-76
2022/10/04 01:42:49;;;;;;;13.30;7.33;;;15.10;90.40;;;;;;5056422;28;20040;-76
2022/10/04 01:45:39;;;;;;;16.15;8.82;;;15.10;90.40;;;;;;5081129;28;20031;-76
2022/10/04 01:48:12;;;;;;;18.23;10.38;;;15.10;90.40;;;;;;5065450;28;20025;-76
2022/10/04 01:50:50;;;;;;;22.85;9.68;;;15.00;90.20;;;;;;5075108;28;20479;-76
2022/10/04 01:53:29;;;;;;;17.02;9.15;;;15.00;90.20;;;;;;5080961;28;20075;-76
2022/10/04 01:56:18;;;;;;;17.25;9.63;;;15.00;90.20;;;;;;5083213;28;20428;-76
2022/10/04 01:59:03;;;;;;;16.70;9.20;;;15.00;90.20;;;;;;5084909;28;20017;-76
2022/10/04 02:01:47;;;;;;;17.25;9.93;;;14.90;90.20;;;;;;5091422;28;20043;-76
2022/10/04 02:04:27;;;;;;;17.90;9.52;;;14.90;90.20;;;;;;5082699;28;20085;-76
2022/10/04 02:06:55;;;;;;;;;;;14.90;90.20;;;;;;5073947;28;20107;-75
2022/10/04 02:09:32;;;;;;;18.45;9.45;;;14.90;90.10;;;;;;5078367;28;19905;-75
2022/10/04 02:11:59;;;;;;;16.70;8.73;;;14.90;90.10;;;;;;5091933;28;20055;-75
2022/10/04 02:14:30;;;;;;;20.08;8.13;;;14.90;90.20;;;;;;5087963;28;20024;-76
2022/10/04 02:16:58;;;;;;;13.60;8.60;;;14.90;90.30;;;;;;5092246;28;20483;-76
2022/10/04 02:19:31;;;;;;;20.48;9.88;;;14.90;90.40;;;;;;5066355;28;20038;-76
2022/10/04 02:21:57;;;;;;;18.52;9.50;;;14.90;90.50;;;;;;5075967;28;20455;-75
2022/10/04 02:24:23;;;;;;;17.40;10.63;;;14.90;90.50;;;;;;5059561;28;20016;-75
2022/10/04 02:26:52;;;;;;;18.55;10.02;;;14.90;90.50;;;;;;5092762;28;20035;-75
2022/10/04 02:29:19;;;;;;;16.42;9.82;;;14.90;90.50;;;;;;5070118;28;20024;-76
2022/10/04 02:34:34;;;;;;;16.20;9.50;;;14.90;90.40;;;;;;5083161;28;20032;-77
2022/10/04 02:37:02;;;;;;;17.58;10.27;;;14.90;90.40;;;;;;5073021;28;20028;-76
2022/10/04 02:39:37;;;;;;;15.25;9.00;;;14.80;90.30;;;;;;5084685;28;20024;-75
2022/10/04 02:42:14;;;;;;;16.52;9.60;;;14.80;90.30;;;;;;5080111;28;20040;-74
2022/10/04 02:44:48;;;;;;;16.38;9.60;;;14.80;90.30;;;;;;5077457;28;20129;-74
2022/10/04 02:47:24;;;;;;;20.85;10.55;;;14.80;90.30;;;;;;5092725;28;20779;-74
2022/10/04 02:49:57;;;;;;;16.88;9.48;;;14.70;90.20;;;;;;5089644;28;20020;-74
2022/10/04 02:52:34;;;;;;;15.30;9.18;;;14.70;90.10;;;;;;5083304;28;20051;-74
2022/10/04 02:55:11;;;;;;;12.43;8.43;;;14.70;90.10;;;;;;5088666;28;20044;-74
2022/10/04 02:57:40;;;;;;;19.50;9.77;;;14.70;90.00;;;;;;5083068;28;20026;-75
2022/10/04 03:00:15;;;;;;;19.97;8.80;;;14.70;90.00;;;;;;5087378;28;20102;-75
2022/10/04 03:02:42;;;;;;;14.70;8.80;;;14.60;89.90;;;;;;5091744;28;20032;-75
2022/10/04 03:05:13;;;;;;;14.60;9.13;;;14.60;89.80;;;;;;5089153;28;20016;-75
2022/10/04 03:07:39;;;;;;;15.60;8.70;;;14.60;89.90;;;;;;5076009;28;20033;-76
2022/10/04 03:10:11;;;;;;;14.82;9.80;;;14.60;89.80;;;;;;5072820;28;20098;-76
2022/10/04 03:12:41;;;;;;;17.38;9.65;;;14.50;90.00;;;;;;5083363;28;20386;-77
2022/10/04 03:15:09;;;;;;;18.23;9.77;;;14.50;90.00;;;;;;5061852;28;20063;-77
2022/10/04 03:17:35;;;;;;;14.48;9.45;;;14.50;90.00;;;;;;5065149;28;20479;-76
2022/10/04 03:20:04;;;;;;;17.77;10.80;;;14.50;90.00;;;;;;5090693;28;20031;-77
2022/10/04 03:22:30;;;;;;;15.57;8.95;;;14.50;90.10;;;;;;5087109;28;20100;-75
2022/10/04 03:24:57;;;;;;;18.85;10.52;;;14.40;90.10;;;;;;5090599;28;20025;-75
2022/10/04 03:27:30;;;;;;;14.77;9.18;;;14.40;90.10;;;;;;5078357;28;20387;-75
2022/10/04 03:29:58;;;;;;;15.73;9.20;;;14.40;90.10;;;;;;5073124;28;20082;-75
2022/10/04 03:32:24;;;;;;;15.63;10.35;;;14.30;90.10;;;;;;5078765;28;20029;-75
2022/10/04 03:35:04;;;;;;;14.55;8.70;;;14.30;90.10;;;;;;5067624;28;20123;-75
2022/10/04 03:37:33;;;;;;;11.83;9.07;;;14.30;90.10;;;;;;5064452;28;20118;-75
2022/10/04 03:40:02;;;;;;;17.98;8.82;;;14.30;90.00;;;;;;5053135;28;20035;-75
2022/10/04 03:42:33;;;;;;;15.85;9.32;;;14.20;90.00;;;;;;5063410;28;20164;-74
2022/10/04 03:45:10;;;;;;;12.90;9.48;;;14.20;90.00;;;;;;5088344;28;20539;-73
2022/10/04 03:47:39;;;;;;;16.23;9.35;;;14.20;90.00;;;;;;5086742;28;20186;-74
2022/10/04 03:50:26;;;;;;;16.75;9.88;;;14.20;90.00;;;;;;5072811;28;20024;-74
2022/10/04 03:52:59;;;;;;;16.70;10.10;;;14.20;89.90;;;;;;5080885;28;20437;-74
2022/10/04 03:55:34;;;;;;;17.55;10.10;;;14.10;89.60;;;;;;5089894;28;20065;-74
2022/10/04 03:58:01;;;;;;;16.90;9.65;;;14.10;89.70;;;;;;5061909;28;20059;-74
2022/10/04 04:00:27;;;;;;;15.90;10.23;;;14.10;89.50;;;;;;5089386;28;20016;-73
2022/10/04 04:02:59;;;;;;;13.23;9.73;;;14.10;89.50;;;;;;5069781;28;20025;-74
2022/10/04 04:05:34;;;;;;;22.15;10.27;;;14.00;89.40;;;;;;5079061;28;20036;-74
2022/10/04 04:08:26;;;;;;;13.90;10.43;;;13.90;89.30;;;;;;5082043;28;20043;-74
2022/10/04 04:10:57;;;;;;;12.00;9.73;;;13.90;89.30;;;;;;5089431;28;20051;-74
2022/10/04 04:13:28;;;;;;;14.10;10.52;;;13.90;89.20;;;;;;5082024;28;20470;-77
2022/10/04 04:15:56;;;;;;;16.15;10.82;;;13.90;89.10;;;;;;5089430;28;20020;-75
2022/10/04 04:18:31;;;;;;;17.52;10.68;;;13.80;89.10;;;;;;5068863;28;20016;-75
2022/10/04 04:21:00;;;;;;;20.52;10.30;;;13.80;89.30;;;;;;5073503;28;20052;-74
2022/10/04 04:23:42;;;;;;;17.75;10.57;;;13.80;89.20;;;;;;5076233;28;20024;-75
2022/10/04 04:26:27;;;;;;;18.15;11.02;;;13.80;89.10;;;;;;5089179;28;20016;-75
2022/10/04 04:29:10;;;;;;;17.65;11.88;;;13.70;89.20;;;;;;5086009;28;20064;-75
2022/10/04 04:31:52;;;;;;;16.45;10.57;;;13.70;89.10;;;;;;5070452;28;20027;-75
2022/10/04 04:34:26;;;;;;;19.48;11.60;;;13.70;89.30;;;;;;5079877;28;20028;-75
2022/10/04 04:37:00;;;;;;;18.13;12.00;;;13.70;89.20;;;;;;5089925;28;20052;-75
2022/10/04 04:39:33;;;;;;;20.60;12.82;;;13.60;89.30;;;;;;5079095;28;20467;-75
2022/10/04 04:42:22;;;;;;;21.30;12.55;;;13.60;89.50;;;;;;5088273;28;20047;-75
2022/10/04 04:44:52;;;;;;;20.17;12.45;;;13.60;89.80;;;;;;5068513;28;20028;-75
2022/10/04 04:47:33;;;;;;;18.75;11.77;;;13.60;89.90;;;;;;5052565;28;20598;-75
2022/10/04 04:50:35;;;;;;;21.90;13.00;;;13.50;89.80;;;;;;5056985;28;20024;-75
2022/10/04 04:53:11;;;;;;;18.88;12.48;;;13.50;90.00;;;;;;5092097;28;20027;-76
2022/10/04 04:55:47;;;;;;;19.15;12.52;;;13.50;90.00;;;;;;5058879;28;20034;-77
2022/10/04 04:58:23;;;;;;;21.50;14.13;;;13.40;90.00;;;;;;5089200;28;20035;-77
2022/10/04 05:00:59;;;;;;;19.77;13.25;;;13.40;90.20;;;;;;5088442;28;20347;-76
2022/10/04 05:03:25;;;;;;;21.75;14.80;;;13.40;90.20;;;;;;5071934;28;20049;-76
2022/10/04 05:05:53;;;;;;;22.02;13.02;;;13.40;90.10;;;;;;5056233;28;20017;-75
2022/10/04 05:08:22;;;;;;;21.13;12.93;;;13.40;90.10;;;;;;5051129;28;20432;-76
2022/10/04 05:10:54;;;;;;;18.80;13.87;;;13.30;90.20;;;;;;5065019;28;20031;-75
2022/10/04 05:13:21;;;;;;;25.65;15.32;;;13.30;90.20;;;;;;5071342;28;20031;-75
2022/10/04 05:15:51;;;;;;;18.27;12.52;;;13.30;90.20;;;;;;5083536;28;20024;-76
2022/10/04 05:18:27;;;;;;;;;;;13.30;90.20;;;;;;5070025;28;20035;-75
2022/10/04 05:20:54;;;;;;;17.92;13.10;;;13.30;90.20;;;;;;5058455;28;19916;-75
2022/10/04 05:23:23;;;;;;;20.75;12.90;;;13.30;90.10;;;;;;5056901;28;20063;-76
2022/10/04 05:25:50;;;;;;;19.52;13.70;;;13.20;90.20;;;;;;5059505;28;20542;-76
2022/10/04 05:28:17;;;;;;;19.27;13.07;;;13.20;90.20;;;;;;5066021;28;20028;-75
2022/10/04 05:30:58;;;;;;;20.10;13.63;;;13.20;90.20;;;;;;5064818;28;20037;-75
2022/10/04 05:33:38;;;;;;;19.52;13.05;;;13.20;90.30;;;;;;5061793;28;20031;-76
2022/10/04 05:36:09;;;;;;;19.42;13.25;;;13.20;90.30;;;;;;5060348;28;20021;-76
2022/10/04 05:39:02;;;;;;;24.02;15.45;;;13.20;90.40;;;;;;5066234;28;20454;-76
2022/10/04 05:41:31;;;;;;;23.98;14.38;;;13.10;90.50;;;;;;5056594;28;20047;-76
2022/10/04 05:43:57;;;;;;;19.08;12.98;;;13.10;90.50;;;;;;5067134;28;20111;-76
2022/10/04 05:46:32;;;;;;;18.42;13.57;;;13.10;90.50;;;;;;5058842;28;20112;-76
2022/10/04 05:49:04;;;;;;;24.05;14.95;;;13.10;90.50;;;;;;5066057;28;20104;-76
2022/10/04 05:51:36;;;;;;;22.08;15.30;;;13.10;90.50;;;;;;5062568;28;20481;-76
2022/10/04 05:54:03;;;;;;;33.83;18.05;;;13.10;90.50;;;;;;5062638;28;20473;-75
2022/10/04 05:56:40;;;;;;;25.80;15.85;;;13.10;90.60;;;;;;5064879;28;20186;-76
2022/10/04 05:59:17;;;;;;;24.83;15.55;;;13.10;90.80;;;;;;5053371;28;20013;-77
2022/10/04 06:02:07;;;;;;;21.20;16.63;;;13.10;90.80;;;;;;5052557;28;20029;-76
2022/10/04 06:04:42;;;;;;;23.95;15.88;;;13.10;90.80;;;;;;5066289;28;20206;-75
2022/10/04 06:07:47;;;;;;;25.95;15.00;;;13.10;90.80;;;;;;5061320;28;20472;-76
2022/10/04 06:10:31;;;;;;;20.67;14.13;;;13.00;90.90;;;;;;5066646;28;20037;-76
2022/10/04 06:13:25;;;;;;;23.25;15.70;;;13.10;90.80;;;;;;5056244;28;20048;-76
2022/10/04 06:16:28;;;;;;;23.15;14.85;;;13.10;90.80;;;;;;5068467;28;20463;-76
2022/10/04 06:19:13;;;;;;;22.77;15.82;;;13.10;90.80;;;;;;5065687;28;20029;-76
2022/10/04 06:21:48;;;;;;;20.95;14.38;;;13.10;90.90;;;;;;5063037;28;20059;-76
2022/10/04 06:24:26;;;;;;;12.98;9.70;;;13.10;90.80;;;;;;5057660;28;20863;-72
2022/10/04 06:27:23;;;;;;;21.95;10.55;;;13.30;91.20;;;;;;5062787;28;20044;-72
2022/10/04 06:30:12;;;;;;;24.15;11.45;;;13.80;91.90;;;;;;5062438;28;20021;-72
2022/10/04 06:33:04;;;;;;;14.13;8.35;;;14.40;92.20;;;;;;5053290;28;20032;-71
2022/10/04 06:36:00;;;;;;;12.73;7.85;;;14.80;91.60;;;;;;5065303;28;20037;-72
2022/10/04 06:38:38;;;;;;;14.93;8.18;;;15.20;91.10;;;;;;5065599;28;20055;-72
2022/10/04 06:41:24;;;;;;;14.27;7.63;;;15.40;90.30;;;;;;5063089;28;20078;-72
2022/10/04 06:44:12;;;;;;;15.25;7.95;;;15.70;89.90;;;;;;5056020;28;20023;-72
2022/10/04 06:46:50;;;;;;;16.50;6.97;;;16.00;88.70;;;;;;5070262;28;20024;-73
2022/10/04 06:49:33;;;;;;;11.93;6.47;;;16.10;86.90;;;;;;5061887;28;20016;-74
2022/10/04 06:52:05;;;;;;;14.13;6.63;;;16.20;86.60;;;;;;5072027;28;20067;-72
2022/10/04 06:55:05;;;;;;;12.32;7.00;;;16.40;86.00;;;;;;5070128;28;20383;-71
2022/10/04 06:57:49;;;;;;;13.30;6.90;;;16.40;85.80;;;;;;5069167;28;20063;-72
2022/10/04 07:00:21;;;;;;;13.75;6.53;;;16.50;85.10;;;;;;5052592;28;20056;-72
2022/10/04 07:03:11;;;;;;;12.68;6.82;;;16.70;85.00;;;;;;5052823;28;20563;-71
2022/10/04 07:06:10;;;;;;;14.90;6.63;;;16.80;83.70;;;;;;5069250;28;20036;-71
2022/10/04 07:08:35;;;;;;;14.40;6.68;;;16.90;83.30;;;;;;5044160;28;20140;-72
2022/10/04 07:11:17;;;;;;;14.38;6.05;;;17.00;82.80;;;;;;5058704;28;20112;-71
2022/10/04 07:14:15;;;;;;;17.20;7.45;;;17.00;82.30;;;;;;5057775;28;20025;-71
2022/10/04 07:17:12;;;;;;;16.35;6.75;;;17.20;81.90;;;;;;5058795;28;20116;-71
2022/10/04 07:19:49;;;;;;;14.73;7.53;;;17.40;81.10;;;;;;5064599;28;20025;-71
2022/10/04 07:22:43;;;;;;;10.73;6.50;;;17.50;79.70;;;;;;5086424;28;20059;-72
2022/10/04 07:25:15;;;;;;;12.75;6.30;;;17.40;79.00;;;;;;5081130;28;20031;-74
2022/10/04 07:29:19;;;;;;;10.82;6.85;;;17.40;79.50;;;;;;5073120;28;20024;-72
2022/10/04 07:30:48;;;;;;;10.43;6.13;;;17.40;79.30;;;;;;5084574;28;20532;-72
2022/10/04 07:33:20;;;;;;;10.02;6.20;;;17.60;78.40;;;;;;5082031;28;20115;-71
2022/10/04 07:36:01;;;;;;;11.48;5.63;;;17.60;78.20;;;;;;5079748;28;20036;-74
2022/10/04 07:38:30;;;;;;;13.13;7.68;;;17.60;78.10;;;;;;5082307;28;20027;-72
2022/10/04 07:41:11;;;;;;;9.60;5.25;;;17.50;77.50;;;;;;5083775;28;20106;-71
2022/10/04 07:43:57;;;;;;;8.68;5.22;;;17.40;77.80;;;;;;5080024;28;20032;-72
2022/10/04 07:46:40;;;;;;;10.60;6.07;;;17.40;77.70;;;;;;5082490;28;20024;-71
2022/10/04 07:49:19;;;;;;;10.90;5.57;;;17.40;78.50;;;;;;5069453;28;20425;-71
2022/10/04 07:52:08;;;;;;;12.48;6.55;;;17.40;77.70;;;;;;5070589;28;20085;-72
2022/10/04 07:55:05;;;;;;;12.10;6.03;;;17.40;77.30;;;;;;5076366;28;20140;-71
2022/10/04 07:57:43;;;;;;;7.07;3.60;;;17.50;77.20;;;;;;5060752;28;20040;-71
2022/10/04 08:00:35;;;;;;;7.40;4.22;;;17.50;77.00;;;;;;5074690;28;20112;-73
2022/10/04 08:03:25;;;;;;;10.10;5.20;;;17.50;77.20;;;;;;5089517;28;20115;-71
2022/10/04 08:06:08;;;;;;;8.48;4.40;;;17.60;77.20;;;;;;5082768;28;20029;-70
2022/10/04 08:08:49;;;;;;;11.15;5.43;;;17.70;76.70;;;;;;5087699;28;20032;-71
2022/10/04 08:11:39;;;;;;;9.73;4.90;;;17.70;75.40;;;;;;5081456;28;20916;-70
2022/10/04 08:14:21;;;;;;;13.75;4.30;;;17.70;74.00;;;;;;5087449;28;20031;-69
2022/10/04 08:17:09;;;;;;;9.43;3.85;;;17.70;74.10;;;;;;5077275;28;20043;-74
2022/10/04 08:19:46;;;;;;;12.85;3.65;;;17.80;73.50;;;;;;5074144;28;20478;-74
2022/10/04 08:22:32;;;;;;;19.63;5.07;;;17.90;73.70;;;;;;5083466;28;20048;-75
2022/10/04 08:25:23;;;;;;;13.38;6.80;;;18.10;73.10;;;;;;5082716;28;20482;-75
2022/10/04 08:31:11;;;;;;;13.80;7.47;;;18.00;72.30;;;;;;5087481;28;20122;-74
2022/10/04 08:33:48;;;;;;;15.15;5.10;;;17.80;72.10;;;;;;5071933;28;20071;-73
2022/10/04 08:36:42;;;;;;;10.73;5.50;;;17.50;73.80;;;;;;5065554;28;20024;-75
2022/10/04 08:39:59;;;;;;;13.13;5.75;;;17.40;74.30;;;;;;5068683;28;20035;-77
2022/10/04 08:42:46;;;;;;;14.43;7.07;;;17.50;75.70;;;;;;4985877;28;20599;-75
2022/10/04 08:45:51;;;;;;;11.38;7.25;;;17.50;73.40;;;;;;5071796;28;20031;-76
2022/10/04 08:48:35;;;;;;;16.95;6.78;;;17.40;73.70;;;;;;5058179;28;20057;-75
2022/10/04 08:51:21;;;;;;;11.50;3.58;;;17.40;73.70;;;;;;5089275;28;20481;-76
2022/10/04 08:54:20;;;;;;;11.13;4.00;;;17.50;75.70;;;;;;5071631;28;20024;-77
2022/10/04 08:57:01;;;;;;;10.43;3.90;;;17.70;77.20;;;;;;5056988;28;20089;-76
2022/10/04 08:59:59;;;;;;;10.05;3.88;;;17.70;78.20;;;;;;5054239;28;20111;-76
2022/10/04 09:02:54;;;;;;;13.82;6.00;;;17.90;78.40;;;;;;5048590;28;20075;-80
2022/10/04 09:05:29;;;;;;;8.45;4.00;;;18.00;75.00;;;;;;5088428;28;20032;-79
2022/10/04 09:08:25;;;;;;;13.35;5.75;;;18.10;76.50;;;;;;5084368;28;20027;-77
2022/10/04 09:11:09;;;;;;;10.18;3.53;;;18.10;76.00;;;;;;5086653;28;20028;-77
2022/10/04 09:14:08;;;;;;;9.07;3.67;;;18.30;77.60;;;;;;5082998;28;20026;-77
2022/10/04 09:17:07;;;;;;;14.40;4.93;;;18.40;77.20;;;;;;5061846;28;20040;-76
2022/10/04 09:19:55;;;;;;;8.85;4.30;;;18.50;76.80;;;;;;5062396;28;20425;-76
2022/10/04 09:22:29;;;;;;;12.40;7.30;;;18.70;76.80;;;;;;5069646;28;20514;-74
2022/10/04 09:25:04;;;;;;;17.45;8.45;;;18.70;71.60;;;;;;5061279;28;20156;-73
2022/10/04 09:28:07;;;;;;;9.73;3.97;;;18.70;70.60;;;;;;5083526;28;20478;-77
2022/10/04 09:30:53;;;;;;;7.05;3.38;;;18.70;74.90;;;;;;5077092;28;20024;-75
2022/10/04 09:34:20;;;;;;;14.05;7.63;;;18.80;77.50;;;;;;5050303;28;20036;-77
2022/10/04 09:37:07;;;;;;;6.65;2.30;;;18.90;73.90;;;;;;4986203;28;20073;-77
2022/10/04 09:39:44;;;;;;;16.23;7.80;;;19.00;77.60;;;;;;5001574;28;20061;-74
2022/10/04 09:42:20;;;;;;;9.55;4.57;;;19.10;69.80;;;;;;5047115;28;20112;-79
2022/10/04 09:44:52;;;;;;;15.07;7.90;;;19.20;74.00;;;;;;5066536;28;20023;-80
2022/10/04 09:47:36;;;;;;;17.30;8.82;;;19.10;67.20;;;;;;5071793;28;20028;-76
2022/10/04 09:50:25;;;;;;;8.50;5.95;;;19.00;69.40;;;;;;5064504;28;20028;-76
2022/10/04 09:53:02;;;;;;;9.63;5.18;;;18.80;70.50;;;;;;5052232;28;20386;-74
2022/10/04 09:56:05;;;;;;;16.27;7.25;;;19.00;71.10;;;;;;5074906;28;20025;-77
2022/10/04 09:58:44;;;;;;;12.43;7.03;;;19.30;71.10;;;;;;5060192;28;20111;-79
2022/10/04 10:01:15;;;;;;;9.98;5.88;;;19.50;69.90;;;;;;5082951;28;20024;-76
2022/10/04 10:04:11;;;;;;;13.18;5.82;;;19.60;69.40;;;;;;5067566;28;20024;-76
2022/10/04 10:06:53;;;;;;;10.10;5.38;;;19.60;71.30;;;;;;5076570;28;20648;-75
2022/10/04 10:15:58;;;;;;;8.93;4.45;;;19.70;74.60;;;;;;5076280;28;20063;-75
2022/10/04 10:18:50;;;;;;;10.15;4.65;;;19.80;71.00;;;;;;5072546;28;20107;-75
2022/10/04 10:21:40;;;;;;;10.63;3.28;;;19.90;70.70;;;;;;5072495;28;20488;-76
2022/10/04 10:24:28;;;;;;;14.52;7.32;;;19.90;72.90;;;;;;5089882;28;20020;-74
2022/10/04 10:27:32;;;;;;;8.73;4.63;;;20.00;66.00;;;;;;5087296;28;20070;-76
2022/10/04 10:30:02;;;;;;;8.63;3.90;;;20.30;68.20;;;;;;5064712;28;20036;-74
2022/10/04 10:32:54;;;;;;;13.82;6.05;;;20.50;69.00;;;;;;5062222;28;20024;-77
2022/10/04 10:35:25;;;;;;;12.23;5.15;;;20.60;65.70;;;;;;5056047;28;20067;-77
2022/10/04 10:38:48;;;;;;;9.60;3.92;;;20.70;64.40;;;;;;5088206;28;20562;-77
2022/10/04 10:41:18;;;;;;;13.95;5.70;;;20.80;68.40;;;;;;4983720;28;20629;-75
2022/10/04 10:44:02;;;;;;;11.30;5.03;;;21.10;64.90;;;;;;4971192;28;20033;-75
2022/10/04 10:46:44;;;;;;;8.95;4.30;;;21.30;61.70;;;;;;5045673;28;20040;-77
2022/10/04 10:49:17;;;;;;;9.65;5.03;;;21.40;64.60;;;;;;5070835;28;20129;-75
2022/10/04 10:51:54;;;;;;;11.15;6.07;;;21.40;61.70;;;;;;5080818;28;20528;-77
2022/10/04 10:54:58;;;;;;;8.02;4.30;;;21.60;62.40;;;;;;5071788;28;20084;-73
2022/10/04 10:58:02;;;;;;;8.55;4.65;;;21.70;61.70;;;;;;5076881;28;20032;-76
2022/10/04 11:00:58;;;;;;;11.30;4.97;;;21.80;61.80;;;;;;5070948;28;20021;-75
2022/10/04 11:03:29;;;;;;;13.02;5.70;;;21.90;60.60;;;;;;5060972;28;20125;-77
2022/10/04 11:06:14;;;;;;;8.07;4.63;;;21.90;59.50;;;;;;5085531;28;20035;-75
2022/10/04 11:09:04;;;;;;;12.48;5.05;;;21.90;62.10;;;;;;5085485;28;20032;-76
2022/10/04 11:11:47;;;;;;;11.60;4.30;;;21.90;63.80;;;;;;5068244;28;20037;-76
2022/10/04 11:14:35;;;;;;;8.90;4.95;;;22.00;62.70;;;;;;5082092;28;20100;-75
2022/10/04 11:17:36;;;;;;;10.95;4.13;;;22.20;63.30;;;;;;5061840;28;20028;-77
2022/10/04 11:20:02;;;;;;;9.38;3.92;;;22.30;64.00;;;;;;5090364;28;20042;-76
2022/10/04 11:23:01;;;;;;;10.65;5.10;;;22.40;62.00;;;;;;5064714;28;20036;-76
2022/10/04 11:25:52;;;;;;;12.88;4.88;;;22.40;59.90;;;;;;5089638;28;20027;-77
2022/10/04 11:28:25;;;;;;;9.45;4.22;;;22.40;59.80;;;;;;5069737;28;20498;-76
2022/10/04 11:31:11;;;;;;;11.52;5.15;;;22.60;60.30;;;;;;5069768;28;20062;-74
2022/10/04 11:33:56;;;;;;;9.15;4.13;;;22.60;58.60;;;;;;5066754;28;20729;-73
2022/10/04 11:36:30;;;;;;;9.57;4.13;;;22.80;65.70;;;;;;5071676;28;20576;-73
2022/10/04 11:39:32;;;;;;;7.70;4.53;;;22.90;62.80;;;;;;5072545;28;20919;-75
2022/10/04 11:42:27;;;;;;;11.32;5.45;;;22.90;61.90;;;;;;5089498;28;20028;-74
2022/10/04 11:45:12;;;;;;;8.77;3.10;;;22.70;62.80;;;;;;5075838;28;20025;-75
2022/10/04 11:48:20;;;;;;;9.70;4.30;;;22.60;68.30;;;;;;5074374;28;20023;-74
2022/10/04 11:51:06;;;;;;;7.40;3.53;;;22.50;61.50;;;;;;5060646;28;20111;-73
2022/10/04 11:53:51;;;;;;;9.38;4.00;;;22.40;66.60;;;;;;5064345;28;20029;-73
2022/10/04 11:56:20;;;;;;;6.65;2.63;;;22.40;63.40;;;;;;5068112;28;20081;-74
2022/10/04 11:59:04;;;;;;;8.85;2.90;;;22.30;66.00;;;;;;5062597;28;20060;-76
2022/10/04 12:01:53;;;;;;;10.05;4.53;;;22.40;71.60;;;;;;5087591;28;20523;-74
2022/10/04 12:04:34;;;;;;;8.98;3.65;;;22.50;60.80;;;;;;5075375;28;20068;-72
2022/10/04 12:07:19;;;;;;;;;;;22.40;59.30;;;;;;5048977;28;20028;-73
2022/10/04 12:10:03;;;;;;;6.20;3.13;;;22.40;65.00;;;;;;5061329;28;19911;-74
2022/10/04 12:12:43;;;;;;;9.07;2.97;;;22.20;67.80;;;;;;5086871;28;20387;-74
2022/10/04 12:15:44;;;;;;;9.90;4.07;;;22.20;69.10;;;;;;5056927;28;20579;-72
2022/10/04 12:18:31;;;;;;;8.27;3.92;;;22.30;64.00;;;;;;5081315;28;20482;-73
2022/10/04 12:21:09;;;;;;;7.63;2.88;;;22.20;59.00;;;;;;5078282;28;20220;-75
2022/10/04 12:23:58;;;;;;;10.65;4.65;;;22.30;68.10;;;;;;5087094;28;20119;-75
2022/10/04 12:26:39;;;;;;;9.90;3.65;;;22.10;55.90;;;;;;5067033;28;20026;-74
2022/10/04 12:29:30;;;;;;;9.82;4.03;;;22.00;61.40;;;;;;5066914;28;20052;-74
2022/10/04 12:32:05;;;;;;;6.75;3.15;;;21.80;61.70;;;;;;5070511;28;20140;-74
2022/10/04 12:34:53;;;;;;;7.97;3.63;;;21.80;66.80;;;;;;5081832;28;20064;-73
2022/10/04 12:37:45;;;;;;;8.98;3.25;;;21.70;64.80;;;;;;5088069;28;20058;-74
2022/10/04 12:40:11;;;;;;;7.80;3.45;;;21.90;61.90;;;;;;5061768;28;20028;-73
2022/10/04 12:43:05;;;;;;;10.25;3.28;;;22.00;63.60;;;;;;5084805;28;20044;-74
2022/10/04 12:45:31;;;;;;;9.73;3.30;;;22.10;66.50;;;;;;5087538;28;20062;-74
2022/10/04 12:48:18;;;;;;;9.52;3.42;;;22.10;64.20;;;;;;5068759;28;20028;-73
2022/10/04 12:51:04;;;;;;;6.25;2.90;;;22.10;64.60;;;;;;5084742;28;20028;-73
2022/10/04 12:54:00;;;;;;;6.22;2.72;;;22.10;67.90;;;;;;5069326;28;20043;-74
2022/10/04 12:56:45;;;;;;;8.18;3.17;;;22.10;60.50;;;;;;5080971;28;20058;-75
2022/10/04 12:59:24;;;;;;;7.25;3.13;;;22.10;66.30;;;;;;5050899;28;20095;-74
2022/10/04 13:01:56;;;;;;;8.02;4.28;;;21.90;62.50;;;;;;5059433;28;20439;-74
2022/10/04 13:04:34;;;;;;;9.43;4.40;;;21.80;65.10;;;;;;5071257;28;20119;-74
2022/10/04 13:07:28;;;;;;;8.25;3.25;;;21.90;63.20;;;;;;5060064;28;20024;-74
2022/10/04 13:10:37;;;;;;;11.23;4.18;;;22.00;64.20;;;;;;5070148;28;20019;-74
2022/10/04 13:13:09;;;;;;;8.93;3.90;;;22.20;59.60;;;;;;5057377;28;20020;-74
2022/10/04 13:16:07;;;;;;;8.50;2.95;;;22.40;57.00;;;;;;5067957;28;20028;-73
2022/10/04 13:18:47;;;;;;;9.02;3.67;;;22.60;60.30;;;;;;5063928;28;20024;-74
2022/10/04 13:21:45;;;;;;;9.75;3.80;;;22.80;55.30;;;;;;5083357;28;20040;-73
2022/10/04 13:24:10;;;;;;;7.88;3.60;;;23.00;57.50;;;;;;5084944;28;20028;-74
2022/10/04 13:26:57;;;;;;;12.10;4.03;;;23.10;56.20;;;;;;5080917;28;20663;-75
2022/10/04 13:29:32;;;;;;;9.93;4.20;;;23.10;56.30;;;;;;5067885;28;20107;-74
2022/10/04 13:32:03;;;;;;;6.72;2.80;;;23.10;55.00;;;;;;5083196;28;20020;-74
2022/10/04 13:34:38;;;;;;;7.70;3.05;;;23.10;57.40;;;;;;5076489;28;20031;-73
2022/10/04 13:37:29;;;;;;;8.52;2.35;;;23.20;57.50;;;;;;5076191;28;20498;-74
2022/10/04 13:40:20;;;;;;;5.30;2.58;;;23.20;54.90;;;;;;5050842;28;20025;-74
2022/10/04 13:43:00;;;;;;;5.30;2.85;;;23.40;54.00;;;;;;5062104;28;20024;-71
2022/10/04 13:45:38;;;;;;;9.10;3.15;;;23.50;58.50;;;;;;5050119;28;20046;-75
2022/10/04 13:48:28;;;;;;;7.75;3.00;;;23.40;52.50;;;;;;5054901;28;20032;-73
2022/10/04 13:50:56;;;;;;;;;;;23.20;59.30;;;;;;5058962;28;20028;-74
2022/10/04 13:56:47;;;;;;;8.13;3.20;;;23.10;53.00;;;;;;5091513;28;20101;-74
2022/10/04 13:59:31;;;;;;;6.05;3.05;;;23.10;52.40;;;;;;5072735;28;20032;-73
2022/10/04 14:02:41;;;;;;;8.38;2.97;;;23.00;54.00;;;;;;5070869;28;20034;-74